sensor_id;sensor_type;location;lat;lon;timestamp;P1;durP1;ratioP1;P2;durP2;ratioP2
12484;SDS011;6307;46.804;11.580;2023-01-06T00:01:18;0.60;;;0.60;;
12484;SDS011;6307;46.804;11.580;2023-01-06T00:03:48;1.00;;;0.90;;
12484;SDS011;6307;46.804;11.580;2023-01-06T00:06:20;0.40;;;0.40;;
12484;SDS011;6307;46.804;11.580;2023-01-06T00:08:51;0.70;;;0.50;;
12484;SDS011;6307;46.804;11.580;2023-01-06T00:11:22;0.40;;;0.40;;
12484;SDS011;6307;46.804;11.580;2023-01-06T00:13:49;0.50;;;0.50;;
12484;SDS011;6307;46.804;11.580;2023-01-06T00:16:17;0.40;;;0.40;;
12484;SDS011;6307;46.804;11.580;2023-01-06T00:18:44;0.60;;;0.60;;
12484;SDS011;6307;46.804;11.580;2023-01-06T00:21:12;0.30;;;0.30;;
12484;SDS011;6307;46.804;11.580;2023-01-06T00:23:39;0.50;;;0.50;;
12484;SDS011;6307;46.804;11.580;2023-01-06T00:26:07;0.60;;;0.60;;
12484;SDS011;6307;46.804;11.580;2023-01-06T00:28:35;0.40;;;0.40;;
12484;SDS011;6307;46.804;11.580;2023-01-06T00:31:08;0.60;;;0.60;;
12484;SDS011;6307;46.804;11.580;2023-01-06T00:33:37;1.70;;;0.60;;
12484;SDS011;6307;46.804;11.580;2023-01-06T00:36:03;0.40;;;0.40;;
12484;SDS011;6307;46.804;11.580;2023-01-06T00:38:32;0.50;;;0.50;;
12484;SDS011;6307;46.804;11.580;2023-01-06T00:41:02;0.43;;;0.43;;
12484;SDS011;6307;46.804;11.580;2023-01-06T00:43:55;0.67;;;0.67;;
12484;SDS011;6307;46.804;11.580;2023-01-06T00:46:23;0.50;;;0.50;;
12484;SDS011;6307;46.804;11.580;2023-01-06T00:48:52;0.53;;;0.53;;
12484;SDS011;6307;46.804;11.580;2023-01-06T00:51:20;0.57;;;0.57;;
12484;SDS011;6307;46.804;11.580;2023-01-06T00:53:46;0.70;;;0.67;;
12484;SDS011;6307;46.804;11.580;2023-01-06T00:56:12;0.60;;;0.60;;
12484;SDS011;6307;46.804;11.580;2023-01-06T00:58:38;0.60;;;0.60;;
12484;SDS011;6307;46.804;11.580;2023-01-06T01:01:05;0.57;;;0.50;;
12484;SDS011;6307;46.804;11.580;2023-01-06T01:03:32;0.50;;;0.50;;
12484;SDS011;6307;46.804;11.580;2023-01-06T01:06:01;0.60;;;0.60;;
12484;SDS011;6307;46.804;11.580;2023-01-06T01:08:31;0.50;;;0.50;;
12484;SDS011;6307;46.804;11.580;2023-01-06T01:11:02;0.90;;;0.80;;
12484;SDS011;6307;46.804;11.580;2023-01-06T01:13:31;0.60;;;0.60;;
12484;SDS011;6307;46.804;11.580;2023-01-06T01:16:07;0.60;;;0.60;;
12484;SDS011;6307;46.804;11.580;2023-01-06T01:18:35;0.70;;;0.70;;
12484;SDS011;6307;46.804;11.580;2023-01-06T01:21:01;0.50;;;0.50;;
12484;SDS011;6307;46.804;11.580;2023-01-06T01:23:27;0.50;;;0.50;;
12484;SDS011;6307;46.804;11.580;2023-01-06T01:25:54;0.50;;;0.50;;
12484;SDS011;6307;46.804;11.580;2023-01-06T01:28:21;2.27;;;0.50;;
12484;SDS011;6307;46.804;11.580;2023-01-06T01:30:48;0.60;;;0.60;;
12484;SDS011;6307;46.804;11.580;2023-01-06T01:33:14;0.70;;;0.70;;
12484;SDS011;6307;46.804;11.580;2023-01-06T01:35:40;0.67;;;0.67;;
12484;SDS011;6307;46.804;11.580;2023-01-06T01:38:06;0.80;;;0.80;;
12484;SDS011;6307;46.804;11.580;2023-01-06T01:40:32;1.10;;;0.70;;
12484;SDS011;6307;46.804;11.580;2023-01-06T01:42:58;0.70;;;0.70;;
12484;SDS011;6307;46.804;11.580;2023-01-06T01:45:26;0.40;;;0.40;;
12484;SDS011;6307;46.804;11.580;2023-01-06T01:48:09;0.70;;;0.70;;
12484;SDS011;6307;46.804;11.580;2023-01-06T01:50:53;0.60;;;0.60;;
12484;SDS011;6307;46.804;11.580;2023-01-06T01:53:24;1.13;;;0.80;;
12484;SDS011;6307;46.804;11.580;2023-01-06T01:56:07;1.00;;;0.60;;
12484;SDS011;6307;46.804;11.580;2023-01-06T01:58:41;1.53;;;0.70;;
12484;SDS011;6307;46.804;11.580;2023-01-06T02:01:17;0.70;;;0.70;;
12484;SDS011;6307;46.804;11.580;2023-01-06T02:03:44;0.87;;;0.80;;
12484;SDS011;6307;46.804;11.580;2023-01-06T02:06:12;0.83;;;0.80;;
12484;SDS011;6307;46.804;11.580;2023-01-06T02:11:45;2.30;;;0.80;;
12484;SDS011;6307;46.804;11.580;2023-01-06T02:14:17;0.73;;;0.70;;
12484;SDS011;6307;46.804;11.580;2023-01-06T02:17:02;0.60;;;0.60;;
12484;SDS011;6307;46.804;11.580;2023-01-06T02:28:38;1.03;;;0.60;;
12484;SDS011;6307;46.804;11.580;2023-01-06T02:34:46;1.03;;;0.60;;
12484;SDS011;6307;46.804;11.580;2023-01-06T02:43:14;0.70;;;0.70;;
12484;SDS011;6307;46.804;11.580;2023-01-06T02:46:09;0.83;;;0.60;;
12484;SDS011;6307;46.804;11.580;2023-01-06T02:54:38;0.60;;;0.60;;
12484;SDS011;6307;46.804;11.580;2023-01-06T02:57:25;0.87;;;0.80;;
12484;SDS011;6307;46.804;11.580;2023-01-06T03:02:56;0.80;;;0.80;;
12484;SDS011;6307;46.804;11.580;2023-01-06T03:05:28;2.25;;;0.80;;
12484;SDS011;6307;46.804;11.580;2023-01-06T03:08:01;0.90;;;0.90;;
12484;SDS011;6307;46.804;11.580;2023-01-06T03:10:42;0.50;;;0.50;;
12484;SDS011;6307;46.804;11.580;2023-01-06T03:16:32;0.75;;;0.75;;
12484;SDS011;6307;46.804;11.580;2023-01-06T03:18:59;1.45;;;0.60;;
12484;SDS011;6307;46.804;11.580;2023-01-06T03:21:26;2.03;;;0.70;;
12484;SDS011;6307;46.804;11.580;2023-01-06T03:24:00;0.93;;;0.70;;
12484;SDS011;6307;46.804;11.580;2023-01-06T03:26:28;0.70;;;0.70;;
12484;SDS011;6307;46.804;11.580;2023-01-06T03:28:54;0.60;;;0.60;;
12484;SDS011;6307;46.804;11.580;2023-01-06T03:33:55;1.17;;;0.80;;
12484;SDS011;6307;46.804;11.580;2023-01-06T03:40:14;2.22;;;0.90;;
12484;SDS011;6307;46.804;11.580;2023-01-06T03:43:24;1.75;;;0.80;;
12484;SDS011;6307;46.804;11.580;2023-01-06T03:51:53;2.92;;;2.30;;
12484;SDS011;6307;46.804;11.580;2023-01-06T03:54:41;2.22;;;1.40;;
12484;SDS011;6307;46.804;11.580;2023-01-06T03:57:13;1.20;;;1.00;;
12484;SDS011;6307;46.804;11.580;2023-01-06T03:59:49;10.77;;;9.52;;
12484;SDS011;6307;46.804;11.580;2023-01-06T04:02:22;1.40;;;1.30;;
12484;SDS011;6307;46.804;11.580;2023-01-06T04:04:59;1.48;;;1.33;;
12484;SDS011;6307;46.804;11.580;2023-01-06T04:07:37;9.52;;;8.57;;
12484;SDS011;6307;46.804;11.580;2023-01-06T04:10:06;5.88;;;2.60;;
12484;SDS011;6307;46.804;11.580;2023-01-06T04:12:34;1.73;;;1.52;;
12484;SDS011;6307;46.804;11.580;2023-01-06T04:15:07;2.67;;;2.40;;
12484;SDS011;6307;46.804;11.580;2023-01-06T04:17:40;1.90;;;1.20;;
12484;SDS011;6307;46.804;11.580;2023-01-06T04:20:09;1.10;;;1.00;;
12484;SDS011;6307;46.804;11.580;2023-01-06T04:22:42;3.13;;;1.25;;
12484;SDS011;6307;46.804;11.580;2023-01-06T04:25:08;1.40;;;1.20;;
12484;SDS011;6307;46.804;11.580;2023-01-06T04:27:35;4.82;;;1.92;;
12484;SDS011;6307;46.804;11.580;2023-01-06T04:30:02;1.85;;;1.73;;
12484;SDS011;6307;46.804;11.580;2023-01-06T04:32:30;1.10;;;1.10;;
12484;SDS011;6307;46.804;11.580;2023-01-06T04:34:56;3.10;;;1.13;;
12484;SDS011;6307;46.804;11.580;2023-01-06T04:37:22;3.80;;;1.23;;
12484;SDS011;6307;46.804;11.580;2023-01-06T04:39:49;2.85;;;1.20;;
12484;SDS011;6307;46.804;11.580;2023-01-06T04:42:15;2.13;;;1.35;;
12484;SDS011;6307;46.804;11.580;2023-01-06T04:44:41;7.00;;;2.50;;
12484;SDS011;6307;46.804;11.580;2023-01-06T04:47:08;3.67;;;1.55;;
12484;SDS011;6307;46.804;11.580;2023-01-06T04:49:34;1.48;;;1.23;;
12484;SDS011;6307;46.804;11.580;2023-01-06T04:52:01;1.23;;;1.05;;
12484;SDS011;6307;46.804;11.580;2023-01-06T04:54:27;1.75;;;1.33;;
12484;SDS011;6307;46.804;11.580;2023-01-06T04:56:54;1.23;;;1.13;;
12484;SDS011;6307;46.804;11.580;2023-01-06T04:59:20;7.72;;;4.35;;
12484;SDS011;6307;46.804;11.580;2023-01-06T05:01:46;3.20;;;2.13;;
12484;SDS011;6307;46.804;11.580;2023-01-06T05:04:12;7.85;;;2.28;;
12484;SDS011;6307;46.804;11.580;2023-01-06T05:06:38;1.00;;;1.00;;
12484;SDS011;6307;46.804;11.580;2023-01-06T05:09:05;2.53;;;1.88;;
12484;SDS011;6307;46.804;11.580;2023-01-06T05:11:31;3.00;;;2.00;;
12484;SDS011;6307;46.804;11.580;2023-01-06T05:13:58;4.55;;;2.78;;
12484;SDS011;6307;46.804;11.580;2023-01-06T05:16:27;8.13;;;3.25;;
12484;SDS011;6307;46.804;11.580;2023-01-06T05:18:57;2.63;;;2.05;;
12484;SDS011;6307;46.804;11.580;2023-01-06T05:21:24;10.05;;;7.20;;
12484;SDS011;6307;46.804;11.580;2023-01-06T05:23:52;1.27;;;1.17;;
12484;SDS011;6307;46.804;11.580;2023-01-06T05:26:20;2.83;;;1.48;;
12484;SDS011;6307;46.804;11.580;2023-01-06T05:28:49;1.35;;;1.25;;
12484;SDS011;6307;46.804;11.580;2023-01-06T05:31:17;15.20;;;12.55;;
12484;SDS011;6307;46.804;11.580;2023-01-06T05:33:43;4.47;;;2.90;;
12484;SDS011;6307;46.804;11.580;2023-01-06T05:36:10;2.53;;;2.30;;
12484;SDS011;6307;46.804;11.580;2023-01-06T05:38:39;86.57;;;53.50;;
12484;SDS011;6307;46.804;11.580;2023-01-06T05:41:06;15.85;;;11.70;;
12484;SDS011;6307;46.804;11.580;2023-01-06T05:43:33;30.83;;;19.48;;
12484;SDS011;6307;46.804;11.580;2023-01-06T05:46:08;4.93;;;3.25;;
12484;SDS011;6307;46.804;11.580;2023-01-06T05:48:36;4.40;;;3.17;;
12484;SDS011;6307;46.804;11.580;2023-01-06T05:51:07;2.97;;;2.20;;
12484;SDS011;6307;46.804;11.580;2023-01-06T05:53:39;2.63;;;1.85;;
12484;SDS011;6307;46.804;11.580;2023-01-06T05:56:08;1.42;;;1.33;;
12484;SDS011;6307;46.804;11.580;2023-01-06T05:58:38;3.90;;;1.70;;
12484;SDS011;6307;46.804;11.580;2023-01-06T06:01:13;8.52;;;5.47;;
12484;SDS011;6307;46.804;11.580;2023-01-06T06:03:45;5.95;;;4.07;;
12484;SDS011;6307;46.804;11.580;2023-01-06T06:06:12;3.95;;;1.98;;
12484;SDS011;6307;46.804;11.580;2023-01-06T06:08:39;2.50;;;2.00;;
12484;SDS011;6307;46.804;11.580;2023-01-06T06:11:05;1.23;;;1.10;;
12484;SDS011;6307;46.804;11.580;2023-01-06T06:13:34;1.35;;;0.95;;
12484;SDS011;6307;46.804;11.580;2023-01-06T06:16:11;0.88;;;0.88;;
12484;SDS011;6307;46.804;11.580;2023-01-06T06:18:40;1.92;;;1.10;;
12484;SDS011;6307;46.804;11.580;2023-01-06T06:21:14;1.15;;;1.05;;
12484;SDS011;6307;46.804;11.580;2023-01-06T06:23:43;2.58;;;1.10;;
12484;SDS011;6307;46.804;11.580;2023-01-06T06:26:09;1.48;;;1.30;;
12484;SDS011;6307;46.804;11.580;2023-01-06T06:28:36;2.50;;;1.13;;
12484;SDS011;6307;46.804;11.580;2023-01-06T06:33:33;1.48;;;1.10;;
12484;SDS011;6307;46.804;11.580;2023-01-06T06:35:59;1.50;;;1.10;;
12484;SDS011;6307;46.804;11.580;2023-01-06T06:38:27;1.27;;;1.17;;
12484;SDS011;6307;46.804;11.580;2023-01-06T06:40:53;1.52;;;0.90;;
12484;SDS011;6307;46.804;11.580;2023-01-06T06:43:19;1.30;;;1.20;;
12484;SDS011;6307;46.804;11.580;2023-01-06T06:45:46;1.55;;;1.30;;
12484;SDS011;6307;46.804;11.580;2023-01-06T06:48:13;1.65;;;1.05;;
12484;SDS011;6307;46.804;11.580;2023-01-06T06:50:40;1.38;;;1.10;;
12484;SDS011;6307;46.804;11.580;2023-01-06T06:53:06;1.35;;;1.20;;
12484;SDS011;6307;46.804;11.580;2023-01-06T06:55:33;1.60;;;1.10;;
12484;SDS011;6307;46.804;11.580;2023-01-06T06:57:59;3.47;;;1.20;;
12484;SDS011;6307;46.804;11.580;2023-01-06T07:00:25;2.10;;;1.20;;
12484;SDS011;6307;46.804;11.580;2023-01-06T07:02:52;1.00;;;1.00;;
12484;SDS011;6307;46.804;11.580;2023-01-06T07:05:18;1.60;;;1.30;;
12484;SDS011;6307;46.804;11.580;2023-01-06T07:07:44;1.70;;;1.30;;
12484;SDS011;6307;46.804;11.580;2023-01-06T07:10:13;1.38;;;1.27;;
12484;SDS011;6307;46.804;11.580;2023-01-06T07:12:40;1.40;;;1.30;;
12484;SDS011;6307;46.804;11.580;2023-01-06T07:15:07;1.60;;;1.48;;
12484;SDS011;6307;46.804;11.580;2023-01-06T07:17:34;3.60;;;1.50;;
12484;SDS011;6307;46.804;11.580;2023-01-06T07:20:00;1.60;;;1.50;;
12484;SDS011;6307;46.804;11.580;2023-01-06T07:22:26;1.67;;;1.35;;
12484;SDS011;6307;46.804;11.580;2023-01-06T07:24:52;2.70;;;1.52;;
12484;SDS011;6307;46.804;11.580;2023-01-06T07:27:18;1.45;;;1.35;;
12484;SDS011;6307;46.804;11.580;2023-01-06T07:29:45;2.35;;;1.50;;
12484;SDS011;6307;46.804;11.580;2023-01-06T07:32:11;1.90;;;1.60;;
12484;SDS011;6307;46.804;11.580;2023-01-06T07:34:37;1.52;;;1.42;;
12484;SDS011;6307;46.804;11.580;2023-01-06T07:37:03;2.03;;;1.50;;
12484;SDS011;6307;46.804;11.580;2023-01-06T07:39:29;2.30;;;1.75;;
12484;SDS011;6307;46.804;11.580;2023-01-06T07:41:55;2.90;;;1.50;;
12484;SDS011;6307;46.804;11.580;2023-01-06T07:44:21;1.65;;;1.55;;
12484;SDS011;6307;46.804;11.580;2023-01-06T07:46:47;3.42;;;1.70;;
12484;SDS011;6307;46.804;11.580;2023-01-06T07:49:13;1.60;;;1.50;;
12484;SDS011;6307;46.804;11.580;2023-01-06T07:51:40;2.08;;;1.80;;
12484;SDS011;6307;46.804;11.580;2023-01-06T07:54:06;1.60;;;1.50;;
12484;SDS011;6307;46.804;11.580;2023-01-06T07:56:32;2.47;;;2.00;;
12484;SDS011;6307;46.804;11.580;2023-01-06T07:58:58;1.95;;;1.60;;
12484;SDS011;6307;46.804;11.580;2023-01-06T08:01:25;2.03;;;1.58;;
12484;SDS011;6307;46.804;11.580;2023-01-06T08:03:51;2.03;;;1.63;;
12484;SDS011;6307;46.804;11.580;2023-01-06T08:06:17;1.83;;;1.50;;
12484;SDS011;6307;46.804;11.580;2023-01-06T08:08:43;1.98;;;1.58;;
12484;SDS011;6307;46.804;11.580;2023-01-06T08:11:10;2.90;;;2.00;;
12484;SDS011;6307;46.804;11.580;2023-01-06T08:13:37;5.47;;;1.73;;
12484;SDS011;6307;46.804;11.580;2023-01-06T08:16:04;3.13;;;1.85;;
12484;SDS011;6307;46.804;11.580;2023-01-06T08:18:32;3.13;;;2.05;;
12484;SDS011;6307;46.804;11.580;2023-01-06T08:21:02;2.00;;;1.80;;
12484;SDS011;6307;46.804;11.580;2023-01-06T08:23:33;3.35;;;1.95;;
12484;SDS011;6307;46.804;11.580;2023-01-06T08:26:07;2.33;;;1.67;;
12484;SDS011;6307;46.804;11.580;2023-01-06T08:28:37;2.92;;;2.05;;
12484;SDS011;6307;46.804;11.580;2023-01-06T08:31:08;2.53;;;2.00;;
12484;SDS011;6307;46.804;11.580;2023-01-06T08:33:37;3.10;;;2.20;;
12484;SDS011;6307;46.804;11.580;2023-01-06T08:36:04;2.75;;;2.00;;
12484;SDS011;6307;46.804;11.580;2023-01-06T08:38:33;3.05;;;2.10;;
12484;SDS011;6307;46.804;11.580;2023-01-06T08:41:01;2.65;;;2.33;;
12484;SDS011;6307;46.804;11.580;2023-01-06T08:43:28;4.88;;;2.40;;
12484;SDS011;6307;46.804;11.580;2023-01-06T08:45:59;4.32;;;2.20;;
12484;SDS011;6307;46.804;11.580;2023-01-06T08:48:28;3.30;;;2.10;;
12484;SDS011;6307;46.804;11.580;2023-01-06T08:51:00;3.67;;;2.40;;
12484;SDS011;6307;46.804;11.580;2023-01-06T08:53:36;3.72;;;2.40;;
12484;SDS011;6307;46.804;11.580;2023-01-06T08:56:03;3.22;;;2.20;;
12484;SDS011;6307;46.804;11.580;2023-01-06T08:58:35;3.38;;;2.20;;
12484;SDS011;6307;46.804;11.580;2023-01-06T09:01:01;3.70;;;2.03;;
12484;SDS011;6307;46.804;11.580;2023-01-06T09:03:27;2.58;;;2.00;;
12484;SDS011;6307;46.804;11.580;2023-01-06T09:05:54;2.53;;;2.30;;
12484;SDS011;6307;46.804;11.580;2023-01-06T09:08:21;5.45;;;2.50;;
12484;SDS011;6307;46.804;11.580;2023-01-06T09:10:48;3.08;;;2.17;;
12484;SDS011;6307;46.804;11.580;2023-01-06T09:13:15;2.47;;;2.00;;
12484;SDS011;6307;46.804;11.580;2023-01-06T09:15:42;3.53;;;1.77;;
12484;SDS011;6307;46.804;11.580;2023-01-06T09:18:09;3.67;;;1.88;;
12484;SDS011;6307;46.804;11.580;2023-01-06T09:20:35;1.98;;;1.77;;
12484;SDS011;6307;46.804;11.580;2023-01-06T09:23:01;3.13;;;1.73;;
12484;SDS011;6307;46.804;11.580;2023-01-06T09:25:28;2.90;;;2.00;;
12484;SDS011;6307;46.804;11.580;2023-01-06T09:27:54;3.17;;;2.20;;
12484;SDS011;6307;46.804;11.580;2023-01-06T09:30:21;2.20;;;1.90;;
12484;SDS011;6307;46.804;11.580;2023-01-06T09:32:49;4.45;;;2.00;;
12484;SDS011;6307;46.804;11.580;2023-01-06T09:35:15;11.63;;;2.92;;
12484;SDS011;6307;46.804;11.580;2023-01-06T09:37:41;31.60;;;3.85;;
12484;SDS011;6307;46.804;11.580;2023-01-06T09:40:08;2.97;;;1.95;;
12484;SDS011;6307;46.804;11.580;2023-01-06T09:48:27;8.57;;;7.25;;
12484;SDS011;6307;46.804;11.580;2023-01-06T09:51:02;22.42;;;17.40;;
12484;SDS011;6307;46.804;11.580;2023-01-06T09:53:33;19.77;;;17.50;;
12484;SDS011;6307;46.804;11.580;2023-01-06T09:56:07;12.15;;;7.65;;
12484;SDS011;6307;46.804;11.580;2023-01-06T09:59:25;7.97;;;4.45;;
12484;SDS011;6307;46.804;11.580;2023-01-06T10:01:41;4.75;;;2.50;;
12484;SDS011;6307;46.804;11.580;2023-01-06T10:04:14;13.35;;;7.22;;
12484;SDS011;6307;46.804;11.580;2023-01-06T10:13:02;13.70;;;3.87;;
12484;SDS011;6307;46.804;11.580;2023-01-06T10:16:13;8.43;;;4.38;;
12484;SDS011;6307;46.804;11.580;2023-01-06T10:28:42;6.33;;;2.40;;
12484;SDS011;6307;46.804;11.580;2023-01-06T10:31:00;9.25;;;3.28;;
12484;SDS011;6307;46.804;11.580;2023-01-06T10:33:33;7.87;;;5.10;;
12484;SDS011;6307;46.804;11.580;2023-01-06T10:36:11;5.80;;;3.35;;
12484;SDS011;6307;46.804;11.580;2023-01-06T10:38:42;4.53;;;2.10;;
12484;SDS011;6307;46.804;11.580;2023-01-06T10:41:19;7.35;;;3.03;;
12484;SDS011;6307;46.804;11.580;2023-01-06T10:44:05;5.73;;;2.77;;
12484;SDS011;6307;46.804;11.580;2023-01-06T10:46:35;6.00;;;2.27;;
12484;SDS011;6307;46.804;11.580;2023-01-06T10:49:03;10.02;;;4.65;;
12484;SDS011;6307;46.804;11.580;2023-01-06T10:51:40;4.15;;;2.00;;
12484;SDS011;6307;46.804;11.580;2023-01-06T10:54:14;9.07;;;2.10;;
12484;SDS011;6307;46.804;11.580;2023-01-06T10:57:22;5.83;;;2.93;;
12484;SDS011;6307;46.804;11.580;2023-01-06T11:03:01;3.10;;;2.08;;
12484;SDS011;6307;46.804;11.580;2023-01-06T11:05:31;3.22;;;2.03;;
12484;SDS011;6307;46.804;11.580;2023-01-06T11:08:03;5.73;;;3.13;;
12484;SDS011;6307;46.804;11.580;2023-01-06T11:10:43;6.33;;;3.13;;
12484;SDS011;6307;46.804;11.580;2023-01-06T11:13:27;4.23;;;1.50;;
12484;SDS011;6307;46.804;11.580;2023-01-06T11:15:56;10.70;;;4.93;;
12484;SDS011;6307;46.804;11.580;2023-01-06T11:18:27;4.50;;;2.00;;
12484;SDS011;6307;46.804;11.580;2023-01-06T11:21:02;6.67;;;1.60;;
12484;SDS011;6307;46.804;11.580;2023-01-06T11:23:35;4.77;;;2.40;;
12484;SDS011;6307;46.804;11.580;2023-01-06T11:26:14;17.70;;;10.17;;
12484;SDS011;6307;46.804;11.580;2023-01-06T11:28:42;39.53;;;22.73;;
12484;SDS011;6307;46.804;11.580;2023-01-06T11:33:50;26.87;;;16.83;;
12484;SDS011;6307;46.804;11.580;2023-01-06T11:36:27;13.30;;;8.13;;
12484;SDS011;6307;46.804;11.580;2023-01-06T11:38:57;146.67;;;75.43;;
12484;SDS011;6307;46.804;11.580;2023-01-06T11:41:38;56.43;;;26.70;;
12484;SDS011;6307;46.804;11.580;2023-01-06T11:44:15;26.90;;;14.73;;
12484;SDS011;6307;46.804;11.580;2023-01-06T11:46:59;13.73;;;8.10;;
12484;SDS011;6307;46.804;11.580;2023-01-06T11:49:45;5.03;;;3.13;;
12484;SDS011;6307;46.804;11.580;2023-01-06T11:55:17;21.57;;;10.93;;
12484;SDS011;6307;46.804;11.580;2023-01-06T11:57:49;11.50;;;7.33;;
12484;SDS011;6307;46.804;11.580;2023-01-06T12:01:32;45.78;;;24.30;;
12484;SDS011;6307;46.804;11.580;2023-01-06T12:03:59;8.52;;;5.65;;
12484;SDS011;6307;46.804;11.580;2023-01-06T12:06:41;9.23;;;6.27;;
12484;SDS011;6307;46.804;11.580;2023-01-06T12:09:15;21.23;;;12.17;;
12484;SDS011;6307;46.804;11.580;2023-01-06T12:12:02;19.90;;;10.47;;
12484;SDS011;6307;46.804;11.580;2023-01-06T12:14:35;26.43;;;14.37;;
12484;SDS011;6307;46.804;11.580;2023-01-06T12:17:09;7.80;;;5.70;;
12484;SDS011;6307;46.804;11.580;2023-01-06T12:22:45;16.02;;;8.27;;
12484;SDS011;6307;46.804;11.580;2023-01-06T12:25:51;7.60;;;4.90;;
12484;SDS011;6307;46.804;11.580;2023-01-06T12:34:34;8.40;;;3.63;;
12484;SDS011;6307;46.804;11.580;2023-01-06T12:37:13;5.80;;;3.50;;
12484;SDS011;6307;46.804;11.580;2023-01-06T12:42:30;4.63;;;2.63;;
12484;SDS011;6307;46.804;11.580;2023-01-06T12:45:40;1.85;;;1.55;;
12484;SDS011;6307;46.804;11.580;2023-01-06T12:48:52;2.22;;;1.92;;
12484;SDS011;6307;46.804;11.580;2023-01-06T12:51:35;2.65;;;2.08;;
12484;SDS011;6307;46.804;11.580;2023-01-06T12:56:55;1.75;;;1.40;;
12484;SDS011;6307;46.804;11.580;2023-01-06T13:11:38;2.08;;;1.40;;
12484;SDS011;6307;46.804;11.580;2023-01-06T13:17:24;1.40;;;1.30;;
12484;SDS011;6307;46.804;11.580;2023-01-06T13:19:59;0.85;;;0.85;;
12484;SDS011;6307;46.804;11.580;2023-01-06T13:31:01;1.25;;;1.15;;
12484;SDS011;6307;46.804;11.580;2023-01-06T13:39:38;0.77;;;0.77;;
12484;SDS011;6307;46.804;11.580;2023-01-06T13:42:29;0.80;;;0.80;;
12484;SDS011;6307;46.804;11.580;2023-01-06T13:45:18;0.90;;;0.90;;
12484;SDS011;6307;46.804;11.580;2023-01-06T13:47:54;1.27;;;1.17;;
12484;SDS011;6307;46.804;11.580;2023-01-06T13:50:24;1.20;;;1.10;;
12484;SDS011;6307;46.804;11.580;2023-01-06T13:52:51;2.15;;;1.20;;
12484;SDS011;6307;46.804;11.580;2023-01-06T13:55:23;1.20;;;1.10;;
12484;SDS011;6307;46.804;11.580;2023-01-06T13:57:53;0.90;;;0.90;;
12484;SDS011;6307;46.804;11.580;2023-01-06T14:00:29;0.95;;;0.95;;
12484;SDS011;6307;46.804;11.580;2023-01-06T14:07:52;3.65;;;2.38;;
12484;SDS011;6307;46.804;11.580;2023-01-06T14:10:34;3.65;;;2.88;;
12484;SDS011;6307;46.804;11.580;2023-01-06T14:13:23;5.60;;;3.90;;
12484;SDS011;6307;46.804;11.580;2023-01-06T14:16:09;4.95;;;3.78;;
12484;SDS011;6307;46.804;11.580;2023-01-06T14:18:41;4.50;;;3.25;;
12484;SDS011;6307;46.804;11.580;2023-01-06T14:21:28;4.20;;;3.22;;
12484;SDS011;6307;46.804;11.580;2023-01-06T14:32:08;11.98;;;9.48;;
12484;SDS011;6307;46.804;11.580;2023-01-06T14:37:19;7.60;;;5.38;;
12484;SDS011;6307;46.804;11.580;2023-01-06T14:39:52;8.85;;;6.80;;
12484;SDS011;6307;46.804;11.580;2023-01-06T14:42:30;9.95;;;6.78;;
12484;SDS011;6307;46.804;11.580;2023-01-06T14:45:04;33.92;;;21.17;;
12484;SDS011;6307;46.804;11.580;2023-01-06T14:47:50;21.80;;;12.57;;
12484;SDS011;6307;46.804;11.580;2023-01-06T14:50:27;41.85;;;17.73;;
12484;SDS011;6307;46.804;11.580;2023-01-06T14:53:02;12.90;;;6.68;;
12484;SDS011;6307;46.804;11.580;2023-01-06T14:55:47;12.65;;;5.10;;
12484;SDS011;6307;46.804;11.580;2023-01-06T14:58:31;10.30;;;4.70;;
12484;SDS011;6307;46.804;11.580;2023-01-06T15:01:03;4.22;;;2.72;;
12484;SDS011;6307;46.804;11.580;2023-01-06T15:03:31;23.50;;;10.65;;
12484;SDS011;6307;46.804;11.580;2023-01-06T15:08:46;20.65;;;11.13;;
12484;SDS011;6307;46.804;11.580;2023-01-06T15:13:48;17.83;;;9.90;;
12484;SDS011;6307;46.804;11.580;2023-01-06T15:16:23;16.15;;;13.43;;
12484;SDS011;6307;46.804;11.580;2023-01-06T15:19:10;13.93;;;10.77;;
12484;SDS011;6307;46.804;11.580;2023-01-06T15:21:44;11.95;;;6.38;;
12484;SDS011;6307;46.804;11.580;2023-01-06T15:24:17;14.60;;;9.90;;
12484;SDS011;6307;46.804;11.580;2023-01-06T15:26:47;15.93;;;10.70;;
12484;SDS011;6307;46.804;11.580;2023-01-06T15:29:16;142.13;;;128.25;;
12484;SDS011;6307;46.804;11.580;2023-01-06T15:31:48;65.30;;;51.00;;
12484;SDS011;6307;46.804;11.580;2023-01-06T15:34:31;59.13;;;48.88;;
12484;SDS011;6307;46.804;11.580;2023-01-06T15:37:03;110.25;;;87.50;;
12484;SDS011;6307;46.804;11.580;2023-01-06T15:39:33;97.40;;;81.65;;
12484;SDS011;6307;46.804;11.580;2023-01-06T15:42:02;12.82;;;7.28;;
12484;SDS011;6307;46.804;11.580;2023-01-06T15:44:34;10.07;;;7.93;;
12484;SDS011;6307;46.804;11.580;2023-01-06T15:47:27;8.23;;;6.38;;
12484;SDS011;6307;46.804;11.580;2023-01-06T15:50:02;32.95;;;15.52;;
12484;SDS011;6307;46.804;11.580;2023-01-06T15:52:45;7.72;;;5.00;;
12484;SDS011;6307;46.804;11.580;2023-01-06T15:55:23;17.27;;;10.10;;
12484;SDS011;6307;46.804;11.580;2023-01-06T15:57:54;5.35;;;2.88;;
12484;SDS011;6307;46.804;11.580;2023-01-06T16:00:25;6.18;;;3.70;;
12484;SDS011;6307;46.804;11.580;2023-01-06T16:02:58;5.13;;;3.85;;
12484;SDS011;6307;46.804;11.580;2023-01-06T16:08:11;6.60;;;4.10;;
12484;SDS011;6307;46.804;11.580;2023-01-06T16:13:41;3.63;;;2.20;;
12484;SDS011;6307;46.804;11.580;2023-01-06T16:18:39;8.77;;;3.38;;
12484;SDS011;6307;46.804;11.580;2023-01-06T16:21:15;2.95;;;2.00;;
12484;SDS011;6307;46.804;11.580;2023-01-06T16:23:54;1.98;;;1.42;;
12484;SDS011;6307;46.804;11.580;2023-01-06T16:26:24;4.47;;;1.90;;
12484;SDS011;6307;46.804;11.580;2023-01-06T16:28:55;7.63;;;1.95;;
12484;SDS011;6307;46.804;11.580;2023-01-06T16:34:12;2.25;;;1.60;;
12484;SDS011;6307;46.804;11.580;2023-01-06T16:36:55;4.03;;;2.13;;
12484;SDS011;6307;46.804;11.580;2023-01-06T16:39:24;3.75;;;2.50;;
12484;SDS011;6307;46.804;11.580;2023-01-06T16:44:30;5.53;;;4.95;;
12484;SDS011;6307;46.804;11.580;2023-01-06T16:46:58;9.95;;;7.95;;
12484;SDS011;6307;46.804;11.580;2023-01-06T16:49:27;28.83;;;20.25;;
12484;SDS011;6307;46.804;11.580;2023-01-06T16:51:55;14.20;;;8.75;;
12484;SDS011;6307;46.804;11.580;2023-01-06T16:54:21;45.83;;;27.98;;
12484;SDS011;6307;46.804;11.580;2023-01-06T16:56:47;71.45;;;41.25;;
12484;SDS011;6307;46.804;11.580;2023-01-06T16:59:16;36.55;;;22.92;;
12484;SDS011;6307;46.804;11.580;2023-01-06T17:01:44;79.85;;;45.85;;
12484;SDS011;6307;46.804;11.580;2023-01-06T17:04:12;164.77;;;89.88;;
12484;SDS011;6307;46.804;11.580;2023-01-06T17:06:41;128.52;;;68.60;;
12484;SDS011;6307;46.804;11.580;2023-01-06T17:09:16;80.47;;;47.35;;
12484;SDS011;6307;46.804;11.580;2023-01-06T17:11:45;10.00;;;6.40;;
12484;SDS011;6307;46.804;11.580;2023-01-06T17:14:14;107.25;;;56.03;;
12484;SDS011;6307;46.804;11.580;2023-01-06T17:16:46;173.02;;;73.93;;
12484;SDS011;6307;46.804;11.580;2023-01-06T17:19:18;15.68;;;9.65;;
12484;SDS011;6307;46.804;11.580;2023-01-06T17:22:39;20.02;;;10.63;;
12484;SDS011;6307;46.804;11.580;2023-01-06T17:24:56;7.28;;;4.30;;
12484;SDS011;6307;46.804;11.580;2023-01-06T17:27:32;5.78;;;3.70;;
12484;SDS011;6307;46.804;11.580;2023-01-06T17:29:59;5.88;;;3.50;;
12484;SDS011;6307;46.804;11.580;2023-01-06T17:32:35;3.75;;;2.83;;
12484;SDS011;6307;46.804;11.580;2023-01-06T17:37:52;5.53;;;3.42;;
12484;SDS011;6307;46.804;11.580;2023-01-06T17:40:26;7.75;;;3.10;;
12484;SDS011;6307;46.804;11.580;2023-01-06T17:43:00;6.38;;;3.15;;
12484;SDS011;6307;46.804;11.580;2023-01-06T17:45:38;6.30;;;3.30;;
12484;SDS011;6307;46.804;11.580;2023-01-06T17:48:08;5.50;;;3.10;;
12484;SDS011;6307;46.804;11.580;2023-01-06T17:50:39;5.50;;;3.03;;
12484;SDS011;6307;46.804;11.580;2023-01-06T17:53:17;6.40;;;3.30;;